sensor_id;sensor_type;location;lat;lon;timestamp;pressure;altitude;pressure_sealevel;temperature;humidity
80627;BME280;69982;51.758;5.784;2023-08-06T00:01:13;100377.63;;;17.05;76.25
80627;BME280;69982;51.758;5.784;2023-08-06T00:03:48;100378.11;;;17.08;76.33
80627;BME280;69982;51.758;5.784;2023-08-06T00:06:16;100378.77;;;17.13;76.23
80627;BME280;69982;51.758;5.784;2023-08-06T00:08:44;100379.18;;;17.15;76.15
80627;BME280;69982;51.758;5.784;2023-08-06T00:11:11;100382.42;;;17.15;76.13
80627;BME280;69982;51.758;5.784;2023-08-06T00:13:40;100379.02;;;17.14;76.03
80627;BME280;69982;51.758;5.784;2023-08-06T00:16:12;100372.15;;;17.10;75.84
80627;BME280;69982;51.758;5.784;2023-08-06T00:18:40;100375.39;;;17.12;75.78
80627;BME280;69982;51.758;5.784;2023-08-06T00:21:08;100370.14;;;17.11;75.68
80627;BME280;69982;51.758;5.784;2023-08-06T00:23:35;100367.52;;;17.09;75.74
80627;BME280;69982;51.758;5.784;2023-08-06T00:26:03;100365.88;;;17.07;75.74
80627;BME280;69982;51.758;5.784;2023-08-06T00:28:31;100364.44;;;17.03;75.76
80627;BME280;69982;51.758;5.784;2023-08-06T00:30:58;100363.05;;;17.03;75.77
80627;BME280;69982;51.758;5.784;2023-08-06T00:33:26;100358.88;;;17.01;75.89
80627;BME280;69982;51.758;5.784;2023-08-06T00:35:54;100360.52;;;17.02;75.93
80627;BME280;69982;51.758;5.784;2023-08-06T00:38:21;100355.54;;;17.03;75.88
80627;BME280;69982;51.758;5.784;2023-08-06T00:40:49;100353.60;;;17.01;76.02
80627;BME280;69982;51.758;5.784;2023-08-06T00:43:16;100353.75;;;17.05;75.98
80627;BME280;69982;51.758;5.784;2023-08-06T00:45:44;100354.74;;;17.07;76.05
80627;BME280;69982;51.758;5.784;2023-08-06T00:48:12;100357.48;;;17.10;76.10
80627;BME280;69982;51.758;5.784;2023-08-06T00:50:40;100354.20;;;17.13;76.32
80627;BME280;69982;51.758;5.784;2023-08-06T00:53:08;100352.38;;;17.14;76.31
80627;BME280;69982;51.758;5.784;2023-08-06T00:55:36;100351.66;;;17.14;76.26
80627;BME280;69982;51.758;5.784;2023-08-06T00:58:03;100353.52;;;17.15;76.14
80627;BME280;69982;51.758;5.784;2023-08-06T01:00:32;100353.73;;;17.13;75.98
80627;BME280;69982;51.758;5.784;2023-08-06T01:02:59;100350.17;;;17.09;76.08
80627;BME280;69982;51.758;5.784;2023-08-06T01:05:27;100357.01;;;17.10;75.96
80627;BME280;69982;51.758;5.784;2023-08-06T01:13:36;100356.52;;;17.06;76.05
80627;BME280;69982;51.758;5.784;2023-08-06T01:16:06;100354.66;;;17.01;76.12
80627;BME280;69982;51.758;5.784;2023-08-06T01:18:34;100354.32;;;17.01;76.04
80627;BME280;69982;51.758;5.784;2023-08-06T01:21:01;100353.52;;;17.00;76.06
80627;BME280;69982;51.758;5.784;2023-08-06T01:23:29;100352.21;;;16.99;76.16
80627;BME280;69982;51.758;5.784;2023-08-06T01:28:59;100345.77;;;17.03;76.17
80627;BME280;69982;51.758;5.784;2023-08-06T01:31:33;100340.98;;;17.06;76.39
80627;BME280;69982;51.758;5.784;2023-08-06T01:34:05;100341.38;;;17.06;76.16
80627;BME280;69982;51.758;5.784;2023-08-06T01:36:33;100340.02;;;17.05;76.11
80627;BME280;69982;51.758;5.784;2023-08-06T01:39:01;100343.06;;;17.06;76.10
80627;BME280;69982;51.758;5.784;2023-08-06T01:41:28;100342.84;;;17.07;76.17
80627;BME280;69982;51.758;5.784;2023-08-06T01:43:56;100346.62;;;17.11;76.13
80627;BME280;69982;51.758;5.784;2023-08-06T01:46:24;100344.34;;;17.12;76.15
80627;BME280;69982;51.758;5.784;2023-08-06T01:48:51;100344.32;;;17.13;76.10
80627;BME280;69982;51.758;5.784;2023-08-06T01:51:19;100346.68;;;17.13;76.07
80627;BME280;69982;51.758;5.784;2023-08-06T01:53:47;100342.67;;;17.13;76.07
80627;BME280;69982;51.758;5.784;2023-08-06T01:56:14;100346.34;;;17.14;75.98
80627;BME280;69982;51.758;5.784;2023-08-06T01:58:42;100341.42;;;17.12;75.96
80627;BME280;69982;51.758;5.784;2023-08-06T02:01:09;100340.41;;;17.11;75.96
80627;BME280;69982;51.758;5.784;2023-08-06T02:03:37;100340.67;;;17.09;76.13
80627;BME280;69982;51.758;5.784;2023-08-06T02:06:05;100345.56;;;17.11;76.18
80627;BME280;69982;51.758;5.784;2023-08-06T02:08:32;100342.69;;;17.12;76.31
80627;BME280;69982;51.758;5.784;2023-08-06T02:11:00;100345.44;;;17.17;76.33
80627;BME280;69982;51.758;5.784;2023-08-06T02:13:29;100343.01;;;17.21;76.43
80627;BME280;69982;51.758;5.784;2023-08-06T02:15:56;100345.41;;;17.27;76.42
80627;BME280;69982;51.758;5.784;2023-08-06T02:18:24;100342.00;;;17.31;76.36
80627;BME280;69982;51.758;5.784;2023-08-06T02:20:59;100342.23;;;17.36;76.31
80627;BME280;69982;51.758;5.784;2023-08-06T02:23:27;100344.36;;;17.39;76.20
80627;BME280;69982;51.758;5.784;2023-08-06T02:26:00;100340.45;;;17.41;76.31
80627;BME280;69982;51.758;5.784;2023-08-06T02:28:31;100340.28;;;17.41;76.11
80627;BME280;69982;51.758;5.784;2023-08-06T02:30:59;100334.56;;;17.39;76.10
80627;BME280;69982;51.758;5.784;2023-08-06T02:33:27;100330.91;;;17.35;75.93
80627;BME280;69982;51.758;5.784;2023-08-06T02:36:02;100331.33;;;17.36;75.97
80627;BME280;69982;51.758;5.784;2023-08-06T02:38:31;100330.48;;;17.36;75.93
80627;BME280;69982;51.758;5.784;2023-08-06T02:41:02;100331.32;;;17.37;75.83
80627;BME280;69982;51.758;5.784;2023-08-06T02:43:31;100326.02;;;17.34;75.86
80627;BME280;69982;51.758;5.784;2023-08-06T02:45:59;100322.93;;;17.35;75.88
80627;BME280;69982;51.758;5.784;2023-08-06T02:48:27;100322.73;;;17.38;75.69
80627;BME280;69982;51.758;5.784;2023-08-06T02:50:58;100318.61;;;17.36;75.71
80627;BME280;69982;51.758;5.784;2023-08-06T02:53:26;100317.95;;;17.36;75.73
80627;BME280;69982;51.758;5.784;2023-08-06T02:55:54;100320.77;;;17.35;75.73
80627;BME280;69982;51.758;5.784;2023-08-06T02:58:22;100323.02;;;17.35;75.70
80627;BME280;69982;51.758;5.784;2023-08-06T03:01:08;100320.95;;;17.35;75.66
80627;BME280;69982;51.758;5.784;2023-08-06T03:03:36;100323.89;;;17.38;75.60
80627;BME280;69982;51.758;5.784;2023-08-06T03:06:03;100318.65;;;17.38;75.49
80627;BME280;69982;51.758;5.784;2023-08-06T03:08:31;100319.83;;;17.38;75.44
80627;BME280;69982;51.758;5.784;2023-08-06T03:10:59;100320.10;;;17.36;75.58
80627;BME280;69982;51.758;5.784;2023-08-06T03:13:26;100317.84;;;17.34;75.53
80627;BME280;69982;51.758;5.784;2023-08-06T03:15:56;100317.73;;;17.31;75.51
80627;BME280;69982;51.758;5.784;2023-08-06T03:18:24;100315.36;;;17.31;75.69
80627;BME280;69982;51.758;5.784;2023-08-06T03:20:54;100314.13;;;17.28;75.74
80627;BME280;69982;51.758;5.784;2023-08-06T03:23:22;100316.23;;;17.28;75.79
80627;BME280;69982;51.758;5.784;2023-08-06T03:25:49;100312.31;;;17.27;75.78
80627;BME280;69982;51.758;5.784;2023-08-06T03:28:17;100315.35;;;17.26;75.71
80627;BME280;69982;51.758;5.784;2023-08-06T03:30:45;100315.65;;;17.27;75.78
80627;BME280;69982;51.758;5.784;2023-08-06T03:33:12;100315.48;;;17.28;75.81
80627;BME280;69982;51.758;5.784;2023-08-06T03:35:40;100314.65;;;17.31;75.66
80627;BME280;69982;51.758;5.784;2023-08-06T03:38:08;100308.73;;;17.31;75.62
80627;BME280;69982;51.758;5.784;2023-08-06T03:40:35;100311.64;;;17.33;75.57
80627;BME280;69982;51.758;5.784;2023-08-06T03:43:03;100313.55;;;17.31;75.51
80627;BME280;69982;51.758;5.784;2023-08-06T03:45:31;100316.02;;;17.28;75.67
80627;BME280;69982;51.758;5.784;2023-08-06T03:47:58;100317.92;;;17.27;75.76
80627;BME280;69982;51.758;5.784;2023-08-06T03:50:26;100317.21;;;17.27;75.85
80627;BME280;69982;51.758;5.784;2023-08-06T03:52:53;100320.36;;;17.28;75.88
80627;BME280;69982;51.758;5.784;2023-08-06T03:55:21;100317.79;;;17.29;75.94
80627;BME280;69982;51.758;5.784;2023-08-06T03:57:49;100316.80;;;17.31;75.95
80627;BME280;69982;51.758;5.784;2023-08-06T04:00:16;100309.11;;;17.33;75.99
80627;BME280;69982;51.758;5.784;2023-08-06T04:02:44;100316.14;;;17.39;75.81
80627;BME280;69982;51.758;5.784;2023-08-06T04:05:13;100316.75;;;17.43;75.77
80627;BME280;69982;51.758;5.784;2023-08-06T04:07:41;100311.86;;;17.41;75.80
80627;BME280;69982;51.758;5.784;2023-08-06T04:10:08;100317.38;;;17.40;75.69
80627;BME280;69982;51.758;5.784;2023-08-06T04:12:36;100316.52;;;17.36;75.76
80627;BME280;69982;51.758;5.784;2023-08-06T04:15:06;100317.52;;;17.31;75.91
80627;BME280;69982;51.758;5.784;2023-08-06T04:17:33;100317.50;;;17.28;75.97
80627;BME280;69982;51.758;5.784;2023-08-06T04:20:01;100318.02;;;17.27;75.99
80627;BME280;69982;51.758;5.784;2023-08-06T04:22:29;100326.29;;;17.28;76.07
80627;BME280;69982;51.758;5.784;2023-08-06T04:24:57;100328.02;;;17.28;76.13
80627;BME280;69982;51.758;5.784;2023-08-06T04:27:25;100329.44;;;17.30;76.12
80627;BME280;69982;51.758;5.784;2023-08-06T04:29:52;100330.73;;;17.32;76.10
80627;BME280;69982;51.758;5.784;2023-08-06T04:32:20;100327.27;;;17.32;76.25
80627;BME280;69982;51.758;5.784;2023-08-06T04:34:48;100328.14;;;17.34;76.23
80627;BME280;69982;51.758;5.784;2023-08-06T04:37:16;100326.20;;;17.33;76.10
80627;BME280;69982;51.758;5.784;2023-08-06T04:39:43;100327.69;;;17.32;76.10
80627;BME280;69982;51.758;5.784;2023-08-06T04:42:11;100329.56;;;17.30;76.26
80627;BME280;69982;51.758;5.784;2023-08-06T04:44:39;100328.80;;;17.29;76.26
80627;BME280;69982;51.758;5.784;2023-08-06T04:47:06;100329.02;;;17.30;76.39
80627;BME280;69982;51.758;5.784;2023-08-06T04:49:34;100329.30;;;17.31;76.48
80627;BME280;69982;51.758;5.784;2023-08-06T04:52:02;100331.98;;;17.34;76.48
80627;BME280;69982;51.758;5.784;2023-08-06T04:54:30;100336.02;;;17.36;76.46
80627;BME280;69982;51.758;5.784;2023-08-06T04:56:57;100339.08;;;17.39;76.52
80627;BME280;69982;51.758;5.784;2023-08-06T04:59:25;100340.73;;;17.42;76.47
80627;BME280;69982;51.758;5.784;2023-08-06T05:01:52;100344.23;;;17.45;76.47
80627;BME280;69982;51.758;5.784;2023-08-06T05:04:20;100344.50;;;17.47;76.47
80627;BME280;69982;51.758;5.784;2023-08-06T05:06:48;100347.08;;;17.47;76.55
80627;BME280;69982;51.758;5.784;2023-08-06T05:09:15;100353.33;;;17.46;76.61
80627;BME280;69982;51.758;5.784;2023-08-06T05:11:43;100353.32;;;17.43;76.67
80627;BME280;69982;51.758;5.784;2023-08-06T05:14:11;100351.66;;;17.44;76.69
80627;BME280;69982;51.758;5.784;2023-08-06T05:16:39;100352.71;;;17.44;76.68
80627;BME280;69982;51.758;5.784;2023-08-06T05:19:06;100355.83;;;17.46;76.57
80627;BME280;69982;51.758;5.784;2023-08-06T05:21:34;100353.95;;;17.48;76.55
80627;BME280;69982;51.758;5.784;2023-08-06T05:24:01;100351.97;;;17.48;76.67
80627;BME280;69982;51.758;5.784;2023-08-06T05:26:29;100355.67;;;17.49;76.80
80627;BME280;69982;51.758;5.784;2023-08-06T05:28:57;100356.95;;;17.48;76.74
80627;BME280;69982;51.758;5.784;2023-08-06T05:31:24;100361.85;;;17.48;76.85
80627;BME280;69982;51.758;5.784;2023-08-06T05:33:52;100361.52;;;17.48;77.03
80627;BME280;69982;51.758;5.784;2023-08-06T05:36:20;100369.09;;;17.52;77.09
80627;BME280;69982;51.758;5.784;2023-08-06T05:38:48;100369.71;;;17.54;77.04
80627;BME280;69982;51.758;5.784;2023-08-06T05:41:16;100369.70;;;17.55;77.05
80627;BME280;69982;51.758;5.784;2023-08-06T05:43:43;100377.40;;;17.59;77.00
80627;BME280;69982;51.758;5.784;2023-08-06T05:46:11;100382.52;;;17.63;77.14
80627;BME280;69982;51.758;5.784;2023-08-06T05:48:38;100385.52;;;17.67;77.16
80627;BME280;69982;51.758;5.784;2023-08-06T05:51:06;100385.20;;;17.69;77.17
80627;BME280;69982;51.758;5.784;2023-08-06T05:53:34;100388.98;;;17.72;76.99
80627;BME280;69982;51.758;5.784;2023-08-06T05:56:02;100392.20;;;17.75;77.07
80627;BME280;69982;51.758;5.784;2023-08-06T05:58:30;100386.77;;;17.74;77.12
80627;BME280;69982;51.758;5.784;2023-08-06T06:00:58;100391.40;;;17.76;77.31
80627;BME280;69982;51.758;5.784;2023-08-06T06:03:26;100395.17;;;17.79;77.22
80627;BME280;69982;51.758;5.784;2023-08-06T06:05:54;100398.72;;;17.79;77.15
80627;BME280;69982;51.758;5.784;2023-08-06T06:08:21;100396.95;;;17.80;77.19
80627;BME280;69982;51.758;5.784;2023-08-06T06:10:49;100405.65;;;17.85;76.82
80627;BME280;69982;51.758;5.784;2023-08-06T06:13:17;100410.39;;;17.89;76.67
80627;BME280;69982;51.758;5.784;2023-08-06T06:15:46;100413.99;;;17.93;76.90
80627;BME280;69982;51.758;5.784;2023-08-06T06:18:14;100415.92;;;17.98;76.82
80627;BME280;69982;51.758;5.784;2023-08-06T06:20:42;100417.92;;;18.02;76.77
80627;BME280;69982;51.758;5.784;2023-08-06T06:23:09;100422.73;;;18.03;76.47
80627;BME280;69982;51.758;5.784;2023-08-06T06:25:42;100426.31;;;18.00;76.17
80627;BME280;69982;51.758;5.784;2023-08-06T06:28:09;100421.92;;;17.95;75.99
80627;BME280;69982;51.758;5.784;2023-08-06T06:30:37;100429.08;;;17.93;76.01
80627;BME280;69982;51.758;5.784;2023-08-06T06:33:04;100432.67;;;17.93;76.03
80627;BME280;69982;51.758;5.784;2023-08-06T06:35:32;100434.26;;;17.96;76.32
80627;BME280;69982;51.758;5.784;2023-08-06T06:37:59;100434.31;;;17.99;76.66
80627;BME280;69982;51.758;5.784;2023-08-06T06:40:27;100438.17;;;18.02;76.28
80627;BME280;69982;51.758;5.784;2023-08-06T06:42:55;100438.80;;;18.03;76.27
80627;BME280;69982;51.758;5.784;2023-08-06T06:45:22;100437.10;;;18.03;76.14
80627;BME280;69982;51.758;5.784;2023-08-06T06:47:50;100437.45;;;18.04;76.01
80627;BME280;69982;51.758;5.784;2023-08-06T06:50:18;100442.69;;;18.08;75.79
80627;BME280;69982;51.758;5.784;2023-08-06T06:52:45;100442.36;;;18.11;76.23
80627;BME280;69982;51.758;5.784;2023-08-06T06:55:13;100445.23;;;18.16;75.68
80627;BME280;69982;51.758;5.784;2023-08-06T06:57:40;100450.21;;;18.22;75.61
80627;BME280;69982;51.758;5.784;2023-08-06T07:00:08;100447.95;;;18.23;75.60
80627;BME280;69982;51.758;5.784;2023-08-06T07:02:36;100452.59;;;18.26;75.34
80627;BME280;69982;51.758;5.784;2023-08-06T07:05:04;100456.86;;;18.25;75.21
80627;BME280;69982;51.758;5.784;2023-08-06T07:07:32;100461.38;;;18.22;75.08
80627;BME280;69982;51.758;5.784;2023-08-06T07:09:59;100459.54;;;18.16;75.07
80627;BME280;69982;51.758;5.784;2023-08-06T07:12:27;100463.92;;;18.10;75.37
80627;BME280;69982;51.758;5.784;2023-08-06T07:14:55;100462.28;;;18.05;75.48
80627;BME280;69982;51.758;5.784;2023-08-06T07:17:22;100463.58;;;18.01;75.46
80627;BME280;69982;51.758;5.784;2023-08-06T07:19:50;100461.98;;;17.96;75.38
80627;BME280;69982;51.758;5.784;2023-08-06T07:22:17;100469.35;;;17.94;75.68
80627;BME280;69982;51.758;5.784;2023-08-06T07:24:45;100466.39;;;17.89;76.16
80627;BME280;69982;51.758;5.784;2023-08-06T07:27:13;100470.41;;;17.86;76.57
80627;BME280;69982;51.758;5.784;2023-08-06T07:29:40;100469.77;;;17.83;76.99
80627;BME280;69982;51.758;5.784;2023-08-06T07:32:08;100476.12;;;17.81;77.16
80627;BME280;69982;51.758;5.784;2023-08-06T07:34:35;100477.17;;;17.80;77.24
80627;BME280;69982;51.758;5.784;2023-08-06T07:37:03;100473.30;;;17.79;77.46
80627;BME280;69982;51.758;5.784;2023-08-06T07:39:31;100477.41;;;17.82;77.48
80627;BME280;69982;51.758;5.784;2023-08-06T07:41:59;100482.76;;;17.86;77.64
80627;BME280;69982;51.758;5.784;2023-08-06T07:44:26;100481.59;;;17.90;78.02
80627;BME280;69982;51.758;5.784;2023-08-06T07:46:54;100486.30;;;17.94;77.93
80627;BME280;69982;51.758;5.784;2023-08-06T07:49:22;100487.27;;;17.94;77.67
80627;BME280;69982;51.758;5.784;2023-08-06T07:51:49;100489.63;;;17.94;77.96
80627;BME280;69982;51.758;5.784;2023-08-06T07:54:19;100490.39;;;17.94;77.94
80627;BME280;69982;51.758;5.784;2023-08-06T07:56:47;100484.65;;;17.93;77.89
80627;BME280;69982;51.758;5.784;2023-08-06T07:59:14;100485.95;;;17.95;77.79
80627;BME280;69982;51.758;5.784;2023-08-06T08:01:42;100488.54;;;17.94;77.60
80627;BME280;69982;51.758;5.784;2023-08-06T08:04:09;100490.65;;;17.93;77.45
80627;BME280;69982;51.758;5.784;2023-08-06T08:06:37;100485.94;;;17.90;77.45
80627;BME280;69982;51.758;5.784;2023-08-06T08:09:05;100487.20;;;17.86;77.56
80627;BME280;69982;51.758;5.784;2023-08-06T08:11:32;100484.99;;;17.80;77.47
80627;BME280;69982;51.758;5.784;2023-08-06T08:14:00;100489.84;;;17.76;77.53
80627;BME280;69982;51.758;5.784;2023-08-06T08:16:27;100490.45;;;17.73;77.66
80627;BME280;69982;51.758;5.784;2023-08-06T08:18:55;100496.09;;;17.71;77.79
80627;BME280;69982;51.758;5.784;2023-08-06T08:21:23;100495.25;;;17.69;77.89
80627;BME280;69982;51.758;5.784;2023-08-06T08:23:51;100498.77;;;17.68;77.86
80627;BME280;69982;51.758;5.784;2023-08-06T08:26:19;100498.69;;;17.67;77.84
80627;BME280;69982;51.758;5.784;2023-08-06T08:28:47;100499.96;;;17.66;78.10
80627;BME280;69982;51.758;5.784;2023-08-06T08:31:15;100501.43;;;17.66;78.24
80627;BME280;69982;51.758;5.784;2023-08-06T08:33:44;100508.86;;;17.64;78.40
80627;BME280;69982;51.758;5.784;2023-08-06T08:36:11;100508.25;;;17.60;78.55
80627;BME280;69982;51.758;5.784;2023-08-06T08:38:39;100508.72;;;17.58;78.73
80627;BME280;69982;51.758;5.784;2023-08-06T08:41:09;100507.80;;;17.56;78.76
80627;BME280;69982;51.758;5.784;2023-08-06T08:43:38;100514.31;;;17.56;78.88
80627;BME280;69982;51.758;5.784;2023-08-06T08:46:09;100518.58;;;17.56;78.79
80627;BME280;69982;51.758;5.784;2023-08-06T08:48:37;100520.02;;;17.55;78.84
80627;BME280;69982;51.758;5.784;2023-08-06T08:51:06;100519.55;;;17.54;78.92
80627;BME280;69982;51.758;5.784;2023-08-06T08:53:35;100523.19;;;17.46;78.37
80627;BME280;69982;51.758;5.784;2023-08-06T08:56:05;100526.02;;;17.35;78.03
80627;BME280;69982;51.758;5.784;2023-08-06T08:58:33;100529.72;;;17.19;77.56
80627;BME280;69982;51.758;5.784;2023-08-06T09:01:01;100535.81;;;17.03;77.64
80627;BME280;69982;51.758;5.784;2023-08-06T09:03:29;100539.17;;;16.91;77.68
80627;BME280;69982;51.758;5.784;2023-08-06T09:05:58;100541.61;;;16.78;77.63
80627;BME280;69982;51.758;5.784;2023-08-06T09:08:32;100542.41;;;16.64;77.50
80627;BME280;69982;51.758;5.784;2023-08-06T09:11:01;100547.48;;;16.48;77.51
80627;BME280;69982;51.758;5.784;2023-08-06T09:13:30;100549.04;;;16.33;77.54
80627;BME280;69982;51.758;5.784;2023-08-06T09:15:57;100555.48;;;16.22;77.44
80627;BME280;69982;51.758;5.784;2023-08-06T09:18:29;100555.10;;;16.13;77.56
80627;BME280;69982;51.758;5.784;2023-08-06T09:20:57;100551.92;;;16.03;77.89
80627;BME280;69982;51.758;5.784;2023-08-06T09:23:29;100555.77;;;15.89;78.28
80627;BME280;69982;51.758;5.784;2023-08-06T09:25:58;100563.47;;;15.81;78.71
80627;BME280;69982;51.758;5.784;2023-08-06T09:28:38;100567.45;;;15.73;79.10
80627;BME280;69982;51.758;5.784;2023-08-06T09:31:10;100571.19;;;15.70;79.30
80627;BME280;69982;51.758;5.784;2023-08-06T09:33:38;100570.79;;;15.66;79.33
80627;BME280;69982;51.758;5.784;2023-08-06T09:36:12;100578.29;;;15.64;79.66
80627;BME280;69982;51.758;5.784;2023-08-06T09:38:40;100584.31;;;15.61;80.01
80627;BME280;69982;51.758;5.784;2023-08-06T09:41:08;100588.69;;;15.58;80.34
80627;BME280;69982;51.758;5.784;2023-08-06T09:43:42;100587.42;;;15.54;80.62
80627;BME280;69982;51.758;5.784;2023-08-06T09:46:11;100591.77;;;15.52;80.78
80627;BME280;69982;51.758;5.784;2023-08-06T09:48:40;100591.20;;;15.49;80.92
80627;BME280;69982;51.758;5.784;2023-08-06T09:51:08;100590.89;;;15.46;81.15
80627;BME280;69982;51.758;5.784;2023-08-06T09:53:37;100587.55;;;15.43;81.21
80627;BME280;69982;51.758;5.784;2023-08-06T09:56:05;100594.20;;;15.43;81.16
80627;BME280;69982;51.758;5.784;2023-08-06T09:58:34;100596.21;;;15.41;81.40
80627;BME280;69982;51.758;5.784;2023-08-06T10:01:02;100599.03;;;15.40;81.55
80627;BME280;69982;51.758;5.784;2023-08-06T10:03:30;100602.39;;;15.40;81.51
80627;BME280;69982;51.758;5.784;2023-08-06T10:05:59;100606.30;;;15.39;81.72
80627;BME280;69982;51.758;5.784;2023-08-06T10:08:29;100604.77;;;15.34;81.73
80627;BME280;69982;51.758;5.784;2023-08-06T10:10:57;100608.56;;;15.36;81.87
80627;BME280;69982;51.758;5.784;2023-08-06T10:13:25;100612.02;;;15.36;82.01
80627;BME280;69982;51.758;5.784;2023-08-06T10:15:54;100615.23;;;15.38;82.23
80627;BME280;69982;51.758;5.784;2023-08-06T10:18:22;100617.55;;;15.41;82.34
80627;BME280;69982;51.758;5.784;2023-08-06T10:20:50;100615.38;;;15.42;82.35
80627;BME280;69982;51.758;5.784;2023-08-06T10:23:17;100621.11;;;15.44;82.51
80627;BME280;69982;51.758;5.784;2023-08-06T10:25:53;100623.82;;;15.47;82.55
80627;BME280;69982;51.758;5.784;2023-08-06T10:28:33;100619.53;;;15.49;82.73
80627;BME280;69982;51.758;5.784;2023-08-06T10:31:03;100624.08;;;15.50;82.54
80627;BME280;69982;51.758;5.784;2023-08-06T10:33:47;100624.30;;;15.52;82.67
80627;BME280;69982;51.758;5.784;2023-08-06T10:36:15;100630.20;;;15.53;82.71
80627;BME280;69982;51.758;5.784;2023-08-06T10:38:50;100634.38;;;15.59;83.04
80627;BME280;69982;51.758;5.784;2023-08-06T10:41:30;100630.67;;;15.63;82.95
80627;BME280;69982;51.758;5.784;2023-08-06T10:44:08;100631.65;;;15.67;82.76
80627;BME280;69982;51.758;5.784;2023-08-06T10:46:37;100630.52;;;15.68;82.84
80627;BME280;69982;51.758;5.784;2023-08-06T10:49:05;100630.23;;;15.71;82.86
80627;BME280;69982;51.758;5.784;2023-08-06T10:51:35;100630.49;;;15.73;82.92
80627;BME280;69982;51.758;5.784;2023-08-06T10:54:04;100631.67;;;15.73;82.80
80627;BME280;69982;51.758;5.784;2023-08-06T10:56:39;100636.58;;;15.77;82.79
80627;BME280;69982;51.758;5.784;2023-08-06T10:59:07;100639.91;;;15.81;82.78
80627;BME280;69982;51.758;5.784;2023-08-06T11:01:38;100644.77;;;15.84;82.64
80627;BME280;69982;51.758;5.784;2023-08-06T11:04:06;100648.40;;;15.84;82.50
80627;BME280;69982;51.758;5.784;2023-08-06T11:06:34;100653.09;;;15.86;82.38
80627;BME280;69982;51.758;5.784;2023-08-06T11:09:02;100653.88;;;15.86;82.20
80627;BME280;69982;51.758;5.784;2023-08-06T11:11:29;100663.92;;;15.90;82.21
80627;BME280;69982;51.758;5.784;2023-08-06T11:13:57;100666.02;;;15.91;82.10
80627;BME280;69982;51.758;5.784;2023-08-06T11:16:25;100671.85;;;15.92;82.00
80627;BME280;69982;51.758;5.784;2023-08-06T11:18:53;100675.60;;;15.93;82.23
80627;BME280;69982;51.758;5.784;2023-08-06T11:21:22;100674.92;;;15.94;82.05
80627;BME280;69982;51.758;5.784;2023-08-06T11:23:51;100672.83;;;15.94;82.19
80627;BME280;69982;51.758;5.784;2023-08-06T11:26:20;100674.98;;;15.97;82.11
80627;BME280;69982;51.758;5.784;2023-08-06T11:28:47;100675.64;;;16.02;82.27
80627;BME280;69982;51.758;5.784;2023-08-06T11:31:19;100671.69;;;16.07;82.06
80627;BME280;69982;51.758;5.784;2023-08-06T11:33:48;100671.09;;;16.06;81.77
80627;BME280;69982;51.758;5.784;2023-08-06T11:36:15;100674.30;;;16.06;81.79
80627;BME280;69982;51.758;5.784;2023-08-06T11:38:43;100681.19;;;16.12;81.94
80627;BME280;69982;51.758;5.784;2023-08-06T11:41:11;100678.80;;;16.17;82.03
80627;BME280;69982;51.758;5.784;2023-08-06T11:43:39;100679.98;;;16.22;81.79
80627;BME280;69982;51.758;5.784;2023-08-06T11:46:07;100685.23;;;16.27;81.92
80627;BME280;69982;51.758;5.784;2023-08-06T11:48:54;100691.00;;;16.26;81.80
80627;BME280;69982;51.758;5.784;2023-08-06T11:51:23;100694.37;;;16.26;81.73
80627;BME280;69982;51.758;5.784;2023-08-06T11:53:57;100690.11;;;16.24;81.76
80627;BME280;69982;51.758;5.784;2023-08-06T11:56:25;100697.48;;;16.23;81.80
80627;BME280;69982;51.758;5.784;2023-08-06T11:58:54;100696.35;;;16.23;81.92
80627;BME280;69982;51.758;5.784;2023-08-06T12:01:22;100696.60;;;16.23;81.98
80627;BME280;69982;51.758;5.784;2023-08-06T12:03:50;100700.02;;;16.26;82.00
80627;BME280;69982;51.758;5.784;2023-08-06T12:06:17;100701.37;;;16.27;82.10
80627;BME280;69982;51.758;5.784;2023-08-06T12:08:45;100701.41;;;16.26;82.02
80627;BME280;69982;51.758;5.784;2023-08-06T12:11:13;100704.08;;;16.29;82.19
80627;BME280;69982;51.758;5.784;2023-08-06T12:13:41;100707.59;;;16.37;82.18
80627;BME280;69982;51.758;5.784;2023-08-06T12:16:08;100714.95;;;16.42;82.13
80627;BME280;69982;51.758;5.784;2023-08-06T12:18:36;100717.74;;;16.47;81.99
80627;BME280;69982;51.758;5.784;2023-08-06T12:21:04;100720.06;;;16.50;81.98
80627;BME280;69982;51.758;5.784;2023-08-06T12:23:31;100727.86;;;16.52;82.07
80627;BME280;69982;51.758;5.784;2023-08-06T12:26:00;100736.21;;;16.51;81.76
80627;BME280;69982;51.758;5.784;2023-08-06T12:28:28;100741.48;;;16.50;81.43
80627;BME280;69982;51.758;5.784;2023-08-06T12:30:55;100739.75;;;16.49;81.16
80627;BME280;69982;51.758;5.784;2023-08-06T12:33:23;100743.59;;;16.46;80.86
80627;BME280;69982;51.758;5.784;2023-08-06T12:35:51;100745.73;;;16.44;80.94
80627;BME280;69982;51.758;5.784;2023-08-06T12:38:22;100750.82;;;16.42;80.95
80627;BME280;69982;51.758;5.784;2023-08-06T12:40:49;100746.90;;;16.41;81.17
80627;BME280;69982;51.758;5.784;2023-08-06T12:43:17;100753.60;;;16.39;81.01
80627;BME280;69982;51.758;5.784;2023-08-06T12:45:45;100761.10;;;16.37;80.99
80627;BME280;69982;51.758;5.784;2023-08-06T12:48:12;100761.30;;;16.36;81.05
80627;BME280;69982;51.758;5.784;2023-08-06T12:50:41;100768.08;;;16.30;80.86
80627;BME280;69982;51.758;5.784;2023-08-06T12:53:08;100761.27;;;16.25;80.95
80627;BME280;69982;51.758;5.784;2023-08-06T12:55:36;100767.33;;;16.25;80.95
80627;BME280;69982;51.758;5.784;2023-08-06T12:58:04;100772.00;;;16.23;80.76
80627;BME280;69982;51.758;5.784;2023-08-06T13:00:31;100767.48;;;16.18;80.60
80627;BME280;69982;51.758;5.784;2023-08-06T13:02:59;100776.66;;;16.16;80.53
80627;BME280;69982;51.758;5.784;2023-08-06T13:05:27;100778.67;;;16.14;80.91